createdAt,value
2023-05-09T00:02:38.281Z,100.00
2023-05-09T00:06:40.953Z,100.00
2023-05-09T00:10:44.964Z,100.00
2023-05-09T00:14:51.498Z,100.00
2023-05-09T00:18:54.156Z,100.00
2023-05-09T00:22:56.826Z,100.00
2023-05-09T00:27:01.566Z,100.00
2023-05-09T00:31:04.785Z,100.00
2023-05-09T00:35:08.746Z,100.00
2023-05-09T00:39:12.474Z,100.00
2023-05-09T00:43:16.794Z,100.00
2023-05-09T00:47:19.907Z,100.00
2023-05-09T00:51:23.041Z,100.00
2023-05-09T00:55:25.870Z,100.00
2023-05-09T00:59:30.197Z,100.00
2023-05-09T01:03:33.461Z,100.00
2023-05-09T01:07:42.373Z,100.00
2023-05-09T01:11:49.816Z,100.00
2023-05-09T01:15:59.950Z,100.00
2023-05-09T01:20:11.567Z,100.00
2023-05-09T01:24:33.246Z,100.00
2023-05-09T01:28:45.611Z,100.00
2023-05-09T01:32:52.934Z,100.00
2023-05-09T01:37:00.701Z,100.00
2023-05-09T01:41:05.313Z,100.00
2023-05-09T01:45:10.705Z,100.00
2023-05-09T01:49:14.839Z,100.00
2023-05-09T01:53:18.764Z,100.00
2023-05-09T01:57:22.690Z,100.00
2023-05-09T02:01:26.228Z,100.00
2023-05-09T02:05:31.936Z,100.00
2023-05-09T02:09:34.716Z,100.00
2023-05-09T02:13:38.258Z,100.00
2023-05-09T02:17:42.191Z,100.00
2023-05-09T02:21:46.277Z,100.00
2023-05-09T02:25:49.218Z,100.00
2023-05-09T02:29:56.208Z,100.00
2023-05-09T02:33:59.464Z,100.00
2023-05-09T02:38:04.202Z,100.00
2023-05-09T02:42:09.054Z,100.00
2023-05-09T02:46:11.904Z,100.00
2023-05-09T02:50:14.783Z,100.00
2023-05-09T02:54:19.494Z,100.00
2023-05-09T02:58:22.175Z,100.00
2023-05-09T03:02:24.922Z,100.00
2023-05-09T03:06:28.028Z,100.00
2023-05-09T03:10:32.041Z,100.00
2023-05-09T03:14:34.925Z,100.00
2023-05-09T03:18:38.917Z,100.00
2023-05-09T03:22:41.729Z,100.00
2023-05-09T03:26:48.368Z,100.00
2023-05-09T03:30:51.635Z,100.00
2023-05-09T03:34:57.405Z,100.00
2023-05-09T03:39:01.157Z,100.00
2023-05-09T03:43:05.699Z,100.00
2023-05-09T03:47:08.812Z,100.00
2023-05-09T03:51:15.388Z,100.00
2023-05-09T03:55:20.692Z,100.00
2023-05-09T03:59:24.852Z,100.00
2023-05-09T04:03:27.918Z,100.00
2023-05-09T04:07:31.127Z,100.00
2023-05-09T04:11:34.333Z,100.00
2023-05-09T04:15:38.932Z,100.00
2023-05-09T04:19:42.238Z,100.00
2023-05-09T04:23:45.437Z,100.00
2023-05-09T04:27:49.638Z,100.00
2023-05-09T04:31:54.222Z,100.00
2023-05-09T04:36:00.256Z,100.00
2023-05-09T04:40:04.313Z,100.00
2023-05-09T04:44:14.435Z,100.00
2023-05-09T04:48:19.779Z,100.00
2023-05-09T04:52:22.417Z,100.00
2023-05-09T04:56:25.120Z,100.00
2023-05-09T05:00:28.548Z,100.00
2023-05-09T05:04:32.741Z,100.00
2023-05-09T05:08:36.850Z,100.00
2023-05-09T05:12:39.538Z,100.00
2023-05-09T05:16:45.273Z,100.00
2023-05-09T05:20:49.640Z,100.00
2023-05-09T05:24:52.550Z,100.00
2023-05-09T05:28:57.036Z,100.00
2023-05-09T05:33:00.884Z,100.00
2023-05-09T05:37:05.013Z,100.00
2023-05-09T05:41:11.102Z,100.00
2023-05-09T05:45:15.409Z,100.00
2023-05-09T05:49:24.811Z,100.00
2023-05-09T05:53:30.362Z,100.00
2023-05-09T05:57:34.516Z,100.00
2023-05-09T06:01:37.632Z,100.00
2023-05-09T06:05:43.135Z,100.00
2023-05-09T06:09:48.176Z,100.00
2023-05-09T06:13:50.991Z,100.00
2023-05-09T06:17:53.766Z,100.00
2023-05-09T06:21:58.465Z,100.00
2023-05-09T06:26:02.478Z,100.00
2023-05-09T06:30:14.238Z,100.00
2023-05-09T06:34:27.285Z,100.00
2023-05-09T06:38:29.932Z,100.00
2023-05-09T06:42:34.017Z,100.00
2023-05-09T06:46:36.704Z,100.00
2023-05-09T06:50:39.369Z,100.00
2023-05-09T06:54:42.053Z,100.00
2023-05-09T06:58:46.108Z,100.00
2023-05-09T07:02:48.751Z,100.00
2023-05-09T07:06:51.418Z,100.00
2023-05-09T07:10:54.360Z,100.00
2023-05-09T07:14:58.618Z,100.00
2023-05-09T07:19:01.258Z,100.00
2023-05-09T07:23:04.194Z,100.00
2023-05-09T07:27:06.885Z,100.00
2023-05-09T07:31:10.944Z,100.00
2023-05-09T07:35:13.740Z,100.00
2023-05-09T07:39:16.747Z,100.00
2023-05-09T07:43:19.471Z,100.00
2023-05-09T07:47:23.602Z,100.00
2023-05-09T07:51:26.348Z,100.00
2023-05-09T07:55:29.050Z,100.00
2023-05-09T07:59:31.859Z,100.00
2023-05-09T08:03:35.902Z,100.00
2023-05-09T08:07:38.727Z,100.00
2023-05-09T08:11:41.513Z,100.00
2023-05-09T08:15:44.222Z,100.00
2023-05-09T08:19:48.247Z,100.00
2023-05-09T08:23:52.353Z,100.00
2023-05-09T08:27:55.025Z,100.00
2023-05-09T08:31:57.816Z,100.00
2023-05-09T08:36:02.391Z,100.00
2023-05-09T08:40:07.366Z,100.00
2023-05-09T08:44:10.828Z,100.00
2023-05-09T08:48:14.739Z,100.00
2023-05-09T08:52:19.325Z,100.00
2023-05-09T08:56:22.261Z,100.00
2023-05-09T09:00:26.639Z,100.00
2023-05-09T09:04:29.921Z,100.00
2023-05-09T09:08:36.269Z,100.00
2023-05-09T09:12:40.190Z,100.00
2023-05-09T09:16:45.595Z,100.00
2023-05-09T09:20:51.165Z,100.00
2023-05-09T09:24:55.304Z,100.00
2023-05-09T09:28:58.531Z,99.15
2023-05-09T09:33:01.327Z,97.98
2023-05-09T09:37:04.009Z,96.66
2023-05-09T09:41:08.068Z,94.08
2023-05-09T09:45:12.751Z,96.36
2023-05-09T09:49:18.456Z,96.50
2023-05-09T09:53:21.856Z,95.89
2023-05-09T09:57:39.937Z,93.50
2023-05-09T10:02:00.175Z,94.33
2023-05-09T10:06:03.104Z,91.28
2023-05-09T10:10:06.781Z,88.60
2023-05-09T10:14:11.529Z,87.94
2023-05-09T10:18:19.755Z,87.67
2023-05-09T10:22:23.136Z,86.25
2023-05-09T10:26:29.106Z,86.24
2023-05-09T10:30:41.075Z,84.54
2023-05-09T10:34:48.665Z,84.71
2023-05-09T10:38:54.320Z,83.33
2023-05-09T10:42:57.056Z,82.72
2023-05-09T10:47:02.574Z,80.93
2023-05-09T10:51:05.759Z,81.62
2023-05-09T10:55:11.414Z,83.51
2023-05-09T10:59:37.356Z,87.01
2023-05-09T11:03:58.379Z,89.87
2023-05-09T11:08:26.392Z,94.06
2023-05-09T11:12:29.034Z,96.98
2023-05-09T11:16:32.018Z,96.20
2023-05-09T11:20:36.606Z,94.73
2023-05-09T11:24:40.078Z,94.58
2023-05-09T11:28:42.880Z,95.47
2023-05-09T11:32:47.760Z,94.07
2023-05-09T11:36:51.799Z,93.97
2023-05-09T11:40:55.927Z,92.39
2023-05-09T11:44:59.412Z,89.45
2023-05-09T11:49:03.755Z,86.15
2023-05-09T11:53:12.343Z,86.10
2023-05-09T11:57:17.371Z,84.38
2023-05-09T12:01:21.440Z,74.91
2023-05-09T12:05:24.526Z,72.93
2023-05-09T12:09:30.830Z,72.88
2023-05-09T12:13:33.524Z,70.40
2023-05-09T12:17:36.948Z,65.53
2023-05-09T12:21:41.274Z,65.23
2023-05-09T12:25:50.223Z,65.71
2023-05-09T12:29:54.889Z,63.95
2023-05-09T12:33:57.878Z,59.83
2023-05-09T12:38:01.508Z,61.81
2023-05-09T12:42:13.180Z,62.01
2023-05-09T12:46:19.000Z,60.64
2023-05-09T12:50:21.755Z,59.81
2023-05-09T12:54:25.262Z,59.61
2023-05-09T12:58:32.079Z,60.62
2023-05-09T13:02:35.674Z,61.75
2023-05-09T13:06:49.047Z,67.64
2023-05-09T13:10:57.724Z,74.16
2023-05-09T13:15:11.323Z,77.88
2023-05-09T13:19:14.446Z,79.95
2023-05-09T13:23:17.166Z,81.08
2023-05-09T13:27:19.745Z,82.16
2023-05-09T13:31:23.991Z,82.12
2023-05-09T13:35:26.969Z,82.71
2023-05-09T13:39:29.603Z,81.67
2023-05-09T13:43:32.431Z,81.55
2023-05-09T13:47:38.041Z,82.64
2023-05-09T13:51:41.785Z,82.79
2023-05-09T13:55:45.620Z,82.27
2023-05-09T13:59:50.698Z,83.24
2023-05-09T14:03:54.713Z,81.13
2023-05-09T14:07:57.522Z,80.77
2023-05-09T14:12:00.158Z,80.85
2023-05-09T14:16:02.906Z,82.91
2023-05-09T14:20:08.369Z,86.02
2023-05-09T14:24:14.213Z,87.32
2023-05-09T14:28:18.473Z,90.34
2023-05-09T14:32:21.202Z,92.37
2023-05-09T14:36:25.215Z,93.89
2023-05-09T14:40:31.637Z,96.27
2023-05-09T14:44:34.273Z,100.00
2023-05-09T14:48:36.911Z,100.00
2023-05-09T14:52:41.021Z,100.00
2023-05-09T14:56:43.779Z,100.00
2023-05-09T15:00:47.294Z,100.00
2023-05-09T15:04:50.009Z,100.00
2023-05-09T15:08:54.155Z,100.00
2023-05-09T15:12:56.831Z,100.00
2023-05-09T15:17:02.726Z,100.00
2023-05-09T15:21:05.909Z,100.00
2023-05-09T15:25:11.032Z,100.00
2023-05-09T15:29:13.942Z,100.00
2023-05-09T15:33:17.568Z,100.00
2023-05-09T15:37:20.256Z,100.00
2023-05-09T15:41:24.325Z,100.00
2023-05-09T15:45:26.953Z,100.00
2023-05-09T15:49:29.937Z,100.00
2023-05-09T15:53:32.644Z,100.00
2023-05-09T15:57:36.690Z,100.00
2023-05-09T16:01:39.464Z,100.00
2023-05-09T16:05:43.715Z,100.00
2023-05-09T16:09:56.858Z,100.00
2023-05-09T16:14:01.049Z,100.00
2023-05-09T16:18:03.793Z,100.00
2023-05-09T16:22:06.580Z,100.00
2023-05-09T16:26:09.213Z,100.00
2023-05-09T16:30:14.724Z,100.00
2023-05-09T16:34:17.638Z,100.00
2023-05-09T16:38:20.552Z,100.00
2023-05-09T16:42:23.454Z,100.00
2023-05-09T16:46:27.492Z,100.00
2023-05-09T16:50:30.208Z,100.00
2023-05-09T16:54:32.980Z,100.00
2023-05-09T16:58:36.810Z,100.00
2023-05-09T17:02:41.564Z,100.00
2023-05-09T17:06:44.251Z,100.00
2023-05-09T17:10:47.077Z,100.00
2023-05-09T17:14:49.795Z,100.00
2023-05-09T17:18:53.796Z,100.00
2023-05-09T17:22:56.505Z,100.00
2023-05-09T17:26:59.700Z,100.00
2023-05-09T17:31:03.307Z,100.00
2023-05-09T17:35:08.224Z,100.00
2023-05-09T17:39:11.372Z,100.00
2023-05-09T17:43:14.158Z,100.00
2023-05-09T17:47:17.248Z,100.00
2023-05-09T17:51:21.856Z,100.00
2023-05-09T17:55:24.505Z,100.00
2023-05-09T17:59:27.139Z,100.00
2023-05-09T18:03:32.119Z,100.00
2023-05-09T18:07:36.411Z,100.00
2023-05-09T18:11:39.445Z,100.00
2023-05-09T18:15:42.140Z,100.00
2023-05-09T18:19:44.832Z,100.00
2023-05-09T18:23:48.807Z,100.00
2023-05-09T18:27:51.637Z,100.00
2023-05-09T18:31:56.012Z,100.00
2023-05-09T18:35:58.922Z,100.00
2023-05-09T18:40:03.159Z,100.00
2023-05-09T18:44:06.156Z,100.00
2023-05-09T18:48:08.784Z,100.00
2023-05-09T18:52:11.608Z,100.00
2023-05-09T18:56:17.162Z,100.00
2023-05-09T19:00:19.942Z,100.00
2023-05-09T19:04:22.719Z,100.00
2023-05-09T19:08:26.128Z,100.00
2023-05-09T19:12:30.181Z,100.00
2023-05-09T19:16:33.006Z,100.00
2023-05-09T19:20:35.731Z,100.00
2023-05-09T19:24:54.630Z,100.00
2023-05-09T19:29:00.591Z,100.00
2023-05-09T19:33:03.305Z,100.00
2023-05-09T19:37:06.093Z,100.00
2023-05-09T19:41:08.738Z,100.00
2023-05-09T19:45:13.439Z,100.00
2023-05-09T19:49:18.018Z,100.00
2023-05-09T19:53:20.860Z,100.00
2023-05-09T19:57:23.962Z,100.00
2023-05-09T20:01:28.244Z,100.00
2023-05-09T20:05:31.048Z,100.00
2023-05-09T20:09:33.896Z,100.00
2023-05-09T20:13:36.587Z,100.00
2023-05-09T20:17:40.617Z,100.00
2023-05-09T20:21:43.529Z,100.00
2023-05-09T20:25:46.161Z,100.00
2023-05-09T20:29:48.810Z,100.00
2023-05-09T20:33:54.468Z,100.00
2023-05-09T20:37:57.202Z,100.00
2023-05-09T20:42:02.259Z,100.00
2023-05-09T20:46:05.170Z,100.00
2023-05-09T20:50:10.380Z,100.00
2023-05-09T20:54:13.060Z,100.00
2023-05-09T20:58:15.710Z,100.00
2023-05-09T21:02:18.418Z,100.00
2023-05-09T21:06:22.444Z,100.00
2023-05-09T21:10:25.858Z,100.00
2023-05-09T21:14:28.573Z,100.00
2023-05-09T21:18:31.278Z,100.00
2023-05-09T21:22:35.259Z,100.00
2023-05-09T21:26:37.871Z,100.00
2023-05-09T21:30:40.524Z,100.00
2023-05-09T21:34:43.804Z,100.00
2023-05-09T21:38:47.754Z,100.00
2023-05-09T21:42:50.564Z,100.00
2023-05-09T21:46:53.268Z,100.00
2023-05-09T21:50:56.008Z,100.00
2023-05-09T21:55:00.419Z,100.00
2023-05-09T21:59:03.070Z,100.00
2023-05-09T22:03:05.864Z,100.00
2023-05-09T22:07:08.842Z,100.00
2023-05-09T22:11:14.648Z,100.00
2023-05-09T22:15:17.833Z,100.00
2023-05-09T22:19:20.698Z,100.00
2023-05-09T22:23:23.313Z,100.00
2023-05-09T22:27:27.613Z,100.00
2023-05-09T22:31:30.280Z,100.00
2023-05-09T22:35:32.946Z,100.00
2023-05-09T22:39:35.559Z,100.00
2023-05-09T22:43:39.908Z,100.00
2023-05-09T22:47:42.731Z,100.00
2023-05-09T22:51:45.601Z,100.00
2023-05-09T22:55:48.280Z,100.00
2023-05-09T22:59:53.379Z,100.00
2023-05-09T23:03:56.040Z,100.00
2023-05-09T23:07:58.763Z,100.00
2023-05-09T23:12:02.582Z,100.00
2023-05-09T23:16:07.304Z,100.00
2023-05-09T23:20:11.531Z,100.00
2023-05-09T23:24:14.157Z,100.00
2023-05-09T23:28:16.828Z,100.00
2023-05-09T23:32:20.919Z,100.00
2023-05-09T23:36:23.611Z,100.00
2023-05-09T23:40:26.307Z,100.00
2023-05-09T23:44:28.976Z,100.00
2023-05-09T23:48:32.964Z,100.00
2023-05-09T23:52:35.914Z,100.00
2023-05-09T23:56:38.643Z,100.00
